Time;durP1;ratioP1;P1;durP2;ratioP2;P2;SDS_P1;SDS_P2;PMS_P1;PMS_P2;Temp;Humidity;BMP_temperature;BMP_pressure;BME280_temperature;BME280_humidity;BME280_pressure;Samples;Min_cycle;Max_cycle;Signal;HPM_P1;HPM_P2
2022/07/01 00:02:00;;;;;;;3.85;1.23;;;;;;;;;;4991399;28;20042;-56
2022/07/01 00:04:27;;;;;;;1.95;0.80;;;;;;;;;;4995156;28;20726;-57
2022/07/01 00:06:57;;;;;;;5.07;1.30;;;;;;;;;;5009301;28;20039;-57
2022/07/01 00:09:23;;;;;;;1.98;1.17;;;;;;;;;;4995046;28;20038;-56
2022/07/01 00:11:50;;;;;;;3.13;1.02;;;;;;;;;;5005233;28;20038;-56
2022/07/01 00:14:19;;;;;;;3.17;1.70;;;;;;;;;;5014729;28;20112;-56
2022/07/01 00:16:45;;;;;;;2.60;1.10;;;;;;;;;;4997635;28;20049;-56
2022/07/01 00:19:11;;;;;;;3.30;1.20;;;;;;;;;;4994687;28;20406;-57
2022/07/01 00:21:37;;;;;;;1.80;1.30;;;;;;;;;;4992607;28;20038;-57
2022/07/01 00:24:03;;;;;;;5.35;1.95;;;;;;;;;;4994709;28;20092;-57
2022/07/01 00:26:29;;;;;;;5.50;1.00;;;;;;;;;;4993274;28;20046;-56
2022/07/01 00:28:56;;;;;;;3.15;1.08;;;;;;;;;;4994361;28;20045;-57
2022/07/01 00:31:22;;;;;;;3.53;1.00;;;;;;;;;;4991497;28;20074;-56
2022/07/01 00:33:48;;;;;;;3.80;1.77;;;;;;;;;;4994464;28;20050;-56
2022/07/01 00:36:14;;;;;;;2.15;1.00;;;;;;;;;;4993835;28;20052;-57
2022/07/01 00:38:40;;;;;;;3.17;1.20;;;;;;;;;;4993924;28;20080;-56
2022/07/01 00:41:06;;;;;;;1.77;1.00;;;;;;;;;;4996160;28;20077;-56
2022/07/01 00:43:38;;;;;;;4.32;1.00;;;;;;;;;;4994212;28;20426;-56
2022/07/01 00:46:07;;;;;;;3.20;1.17;;;;;;;;;;4993263;28;20038;-56
2022/07/01 00:48:33;;;;;;;2.25;1.10;;;;;;;;;;4993366;28;20114;-57
2022/07/01 00:50:59;;;;;;;2.65;1.02;;;;;;;;;;4991605;28;20046;-56
2022/07/01 00:53:26;;;;;;;2.20;1.10;;;;;;;;;;4994353;28;20054;-56
2022/07/01 00:55:52;;;;;;;2.53;1.38;;;;;;;;;;4995198;28;20046;-56
2022/07/01 00:58:18;;;;;;;3.33;1.38;;;;;;;;;;4991826;28;20042;-57
2022/07/01 01:00:44;;;;;;;2.30;1.40;;;;;;;;;;5007649;28;20030;-56
2022/07/01 01:03:11;;;;;;;3.38;2.50;;;;;;;;;;4992434;28;20145;-57
2022/07/01 01:05:41;;;;;;;4.15;1.88;;;;;;;;;;4992801;28;20042;-57
2022/07/01 01:08:09;;;;;;;2.95;1.80;;;;;;;;;;4992228;28;20058;-57
2022/07/01 01:10:36;;;;;;;3.70;2.00;;;;;;;;;;4991625;28;20038;-57
2022/07/01 01:13:03;;;;;;;3.97;1.67;;;;;;;;;;5010208;28;20142;-56
2022/07/01 01:15:30;;;;;;;2.92;1.92;;;;;;;;;;5000625;28;20085;-57
2022/07/01 01:17:56;;;;;;;4.05;1.80;;;;;;;;;;4992856;28;20156;-57
2022/07/01 01:20:22;;;;;;;3.92;2.25;;;;;;;;;;4991765;28;20057;-56
2022/07/01 01:22:49;;;;;;;3.70;1.88;;;;;;;;;;4992604;28;20049;-56
2022/07/01 01:25:18;;;;;;;4.03;2.15;;;;;;;;;;5008258;28;20063;-56
2022/07/01 01:27:44;;;;;;;4.05;2.08;;;;;;;;;;4992252;28;20049;-57
2022/07/01 01:30:11;;;;;;;4.65;2.30;;;;;;;;;;4991144;28;20050;-57
2022/07/01 01:32:38;;;;;;;4.80;1.95;;;;;;;;;;4991884;28;20073;-56
2022/07/01 01:35:04;;;;;;;2.95;2.00;;;;;;;;;;4993150;28;20390;-57
2022/07/01 01:37:30;;;;;;;3.13;2.28;;;;;;;;;;4992857;28;20054;-57
2022/07/01 01:39:58;;;;;;;3.42;2.30;;;;;;;;;;5004931;28;20125;-57
2022/07/01 01:42:24;;;;;;;5.82;2.95;;;;;;;;;;4995160;28;20171;-57
2022/07/01 01:44:50;;;;;;;4.85;2.63;;;;;;;;;;4991099;28;20485;-57
2022/07/01 01:47:16;;;;;;;3.95;2.83;;;;;;;;;;4990959;28;20549;-57
2022/07/01 01:49:42;;;;;;;3.65;2.85;;;;;;;;;;4993394;28;20056;-57
2022/07/01 01:52:08;;;;;;;4.80;2.65;;;;;;;;;;5004045;28;20050;-56
2022/07/01 01:54:36;;;;;;;5.45;3.55;;;;;;;;;;5012897;28;20092;-57
2022/07/01 01:57:02;;;;;;;5.65;3.70;;;;;;;;;;5002555;28;20042;-57
2022/07/01 01:59:28;;;;;;;5.90;4.15;;;;;;;;;;5012876;28;20034;-56
2022/07/01 02:01:54;;;;;;;6.10;4.40;;;;;;;;;;5000595;28;20422;-56
2022/07/01 02:04:23;;;;;;;8.88;4.93;;;;;;;;;;4992837;28;20430;-57
2022/07/01 02:06:49;;;;;;;7.22;4.43;;;;;;;;;;4991229;28;20049;-56
2022/07/01 02:09:15;;;;;;;6.07;4.50;;;;;;;;;;4992354;28;20046;-57
2022/07/01 02:11:41;;;;;;;6.03;5.07;;;;;;;;;;5002868;28;20458;-56
2022/07/01 02:14:07;;;;;;;8.02;4.80;;;;;;;;;;4996624;28;20081;-57
2022/07/01 02:16:33;;;;;;;6.40;4.20;;;;;;;;;;4989806;28;20122;-56
2022/07/01 02:18:59;;;;;;;5.68;3.40;;;;;;;;;;5006639;28;20093;-57
2022/07/01 02:21:25;;;;;;;5.32;3.53;;;;;;;;;;4990784;28;20040;-56
2022/07/01 02:23:52;;;;;;;7.57;3.40;;;;;;;;;;4992745;28;20076;-57
2022/07/01 02:26:19;;;;;;;6.63;3.03;;;;;;;;;;4996686;28;20049;-56
2022/07/01 02:28:45;;;;;;;5.60;2.97;;;;;;;;;;4991664;28;20138;-56
2022/07/01 02:31:11;;;;;;;5.55;2.80;;;;;;;;;;4996668;28;20076;-57
2022/07/01 02:33:37;;;;;;;6.28;3.42;;;;;;;;;;5003095;28;20043;-57
2022/07/01 02:36:03;;;;;;;5.90;2.70;;;;;;;;;;4992155;28;20373;-57
2022/07/01 02:38:29;;;;;;;7.13;3.13;;;;;;;;;;4992263;28;20066;-57
2022/07/01 02:40:55;;;;;;;6.28;3.58;;;;;;;;;;4990091;28;20456;-56
2022/07/01 02:43:21;;;;;;;9.15;3.05;;;;;;;;;;4992953;28;20364;-57
2022/07/01 02:45:47;;;;;;;5.10;2.72;;;;;;;;;;4999401;28;20116;-57
2022/07/01 02:48:13;;;;;;;7.63;3.03;;;;;;;;;;4995183;28;20101;-57
2022/07/01 02:50:39;;;;;;;6.55;3.22;;;;;;;;;;4990619;28;20094;-57
2022/07/01 02:53:05;;;;;;;5.95;3.10;;;;;;;;;;4992650;28;20046;-57
2022/07/01 02:55:31;;;;;;;7.90;3.55;;;;;;;;;;4989059;28;20043;-56
2022/07/01 02:57:57;;;;;;;7.97;3.58;;;;;;;;;;4992757;28;20052;-57
2022/07/01 03:00:24;;;;;;;6.97;3.05;;;;;;;;;;4994365;28;20793;-57
2022/07/01 03:02:50;;;;;;;5.07;3.75;;;;;;;;;;4996362;28;20170;-57
2022/07/01 03:05:16;;;;;;;5.60;3.42;;;;;;;;;;5010441;28;20471;-57
2022/07/01 03:07:42;;;;;;;8.30;4.28;;;;;;;;;;4993398;28;20075;-56
2022/07/01 03:10:09;;;;;;;5.85;4.35;;;;;;;;;;4995824;28;20038;-55
2022/07/01 03:12:35;;;;;;;10.13;5.70;;;;;;;;;;4995226;28;20077;-55
2022/07/01 03:15:04;;;;;;;7.57;5.50;;;;;;;;;;4993826;28;20077;-55
2022/07/01 03:17:33;;;;;;;10.38;5.70;;;;;;;;;;5011782;28;20076;-55
2022/07/01 03:19:59;;;;;;;8.40;6.10;;;;;;;;;;4992485;28;20038;-55
2022/07/01 03:22:30;;;;;;;11.32;7.47;;;;;;;;;;4994853;28;20049;-55
2022/07/01 03:24:56;;;;;;;15.45;8.88;;;;;;;;;;4994571;28;20073;-55
2022/07/01 03:27:23;;;;;;;15.93;10.95;;;;;;;;;;5008496;28;20096;-55
2022/07/01 03:29:51;;;;;;;16.67;11.68;;;;;;;;;;5009296;28;20034;-57
2022/07/01 03:32:18;;;;;;;21.60;13.95;;;;;;;;;;4994568;28;20074;-57
2022/07/01 03:34:45;;;;;;;24.08;14.27;;;;;;;;;;4995284;28;20501;-56
2022/07/01 03:37:12;;;;;;;24.20;15.30;;;;;;;;;;4996449;28;20058;-57
2022/07/01 03:39:39;;;;;;;26.02;14.65;;;;;;;;;;4994122;28;20050;-57
2022/07/01 03:42:05;;;;;;;24.20;15.90;;;;;;;;;;4994984;28;20138;-56
2022/07/01 03:44:32;;;;;;;25.65;15.82;;;;;;;;;;4994532;28;20046;-57
2022/07/01 03:47:00;;;;;;;26.17;16.48;;;;;;;;;;4993379;28;20108;-57
2022/07/01 03:49:26;;;;;;;27.77;18.48;;;;;;;;;;4993313;28;20066;-57
2022/07/01 03:51:52;;;;;;;31.45;19.45;;;;;;;;;;4995169;28;20048;-57
2022/07/01 03:54:31;;;;;;;31.08;18.77;;;;;;;;;;4995011;28;20121;-57
2022/07/01 03:56:57;;;;;;;32.97;20.33;;;;;;;;;;4995487;28;20038;-57
2022/07/01 03:59:23;;;;;;;32.47;20.60;;;;;;;;;;4992938;28;20049;-57
2022/07/01 04:01:49;;;;;;;31.70;21.08;;;;;;;;;;4994547;28;20101;-57
2022/07/01 04:04:15;;;;;;;33.53;20.15;;;;;;;;;;4997025;28;20378;-57
2022/07/01 04:06:41;;;;;;;33.42;21.08;;;;;;;;;;4995181;28;20046;-57
2022/07/01 04:09:07;;;;;;;31.80;20.55;;;;;;;;;;4991376;28;20050;-57
2022/07/01 04:11:33;;;;;;;34.70;22.42;;;;;;;;;;4994361;28;20354;-56
2022/07/01 04:14:00;;;;;;;36.65;22.10;;;;;;;;;;5008596;28;20048;-57
2022/07/01 04:16:26;;;;;;;33.53;21.10;;;;;;;;;;4993615;28;20548;-57
2022/07/01 04:18:52;;;;;;;32.25;20.80;;;;;;;;;;4997471;28;20080;-57
2022/07/01 04:24:03;;;;;;;34.20;22.23;;;;;;;;;;4994991;28;20050;-57
2022/07/01 04:26:29;;;;;;;37.72;23.45;;;;;;;;;;4993500;28;20049;-57
2022/07/01 04:28:55;;;;;;;39.38;22.13;;;;;;;;;;4994472;28;20042;-57
2022/07/01 04:31:22;;;;;;;37.92;23.85;;;;;;;;;;4992849;28;20104;-56
2022/07/01 04:33:48;;;;;;;37.63;22.88;;;;;;;;;;4998795;28;20069;-56
2022/07/01 04:36:15;;;;;;;44.47;25.20;;;;;;;;;;4994440;28;20390;-56
2022/07/01 04:38:41;;;;;;;45.53;26.58;;;;;;;;;;5003965;28;20453;-56
2022/07/01 04:43:51;;;;;;;40.28;25.10;;;;;;;;;;4991918;28;20552;-57
2022/07/01 04:46:17;;;;;;;43.72;25.67;;;;;;;;;;4994604;28;20050;-57
2022/07/01 04:48:44;;;;;;;39.33;25.15;;;;;;;;;;4992699;28;20095;-56
2022/07/01 04:51:10;;;;;;;38.85;25.85;;;;;;;;;;4993319;28;20042;-56
2022/07/01 04:53:36;;;;;;;41.83;26.38;;;;;;;;;;4993053;28;20057;-57
2022/07/01 04:56:02;;;;;;;37.13;25.92;;;;;;;;;;4992856;28;20048;-57
2022/07/01 04:58:28;;;;;;;42.58;26.80;;;;;;;;;;4992921;28;20394;-57
2022/07/01 05:00:54;;;;;;;40.75;26.67;;;;;;;;;;5005776;28;20072;-58
2022/07/01 05:03:20;;;;;;;38.78;25.48;;;;;;;;;;4993443;28;20478;-56
2022/07/01 05:05:46;;;;;;;42.58;27.27;;;;;;;;;;4993685;28;20493;-56
2022/07/01 05:08:12;;;;;;;38.58;26.00;;;;;;;;;;4996469;28;20489;-56
2022/07/01 05:10:38;;;;;;;40.55;25.98;;;;;;;;;;4999685;28;20479;-56
2022/07/01 05:13:04;;;;;;;43.72;27.58;;;;;;;;;;4991655;28;20072;-56
2022/07/01 05:15:30;;;;;;;42.10;26.75;;;;;;;;;;4990498;28;20042;-56
2022/07/01 05:23:26;;;;;;;40.53;25.98;;;;;;;;;;4993656;28;20177;-56
2022/07/01 05:25:52;;;;;;;39.95;25.90;;;;;;;;;;4991999;28;20129;-55
2022/07/01 05:28:18;;;;;;;40.58;27.85;;;;;;;;;;4993380;28;20044;-56
2022/07/01 05:30:44;;;;;;;39.28;26.70;;;;;;;;;;4993489;28;20048;-56
2022/07/01 05:33:10;;;;;;;42.53;27.38;;;;;;;;;;4993610;28;20390;-56
2022/07/01 05:35:36;;;;;;;36.08;26.38;;;;;;;;;;4997644;28;20048;-56
2022/07/01 05:38:02;;;;;;;40.28;27.48;;;;;;;;;;5013326;28;20072;-56
2022/07/01 05:40:28;;;;;;;38.00;26.17;;;;;;;;;;5004331;28;20057;-56
2022/07/01 05:42:55;;;;;;;39.65;26.90;;;;;;;;;;4985951;28;20428;-56
2022/07/01 05:45:21;;;;;;;37.55;26.00;;;;;;;;;;4987649;28;20077;-55
2022/07/01 05:47:47;;;;;;;39.75;25.75;;;;;;;;;;4991623;28;20048;-55
2022/07/01 05:50:13;;;;;;;41.15;25.70;;;;;;;;;;4986968;28;20037;-56
2022/07/01 05:52:39;;;;;;;34.60;23.65;;;;;;;;;;4991913;28;20042;-56
2022/07/01 05:55:06;;;;;;;35.53;23.27;;;;;;;;;;4992798;28;20077;-55
2022/07/01 05:57:32;;;;;;;32.20;22.98;;;;;;;;;;5008476;28;20046;-57
2022/07/01 05:59:58;;;;;;;36.28;24.17;;;;;;;;;;4997827;28;20040;-55
2022/07/01 06:02:25;;;;;;;31.77;21.50;;;;;;;;;;4992855;28;20038;-55
2022/07/01 06:04:51;;;;;;;33.97;22.67;;;;;;;;;;4990805;28;20053;-55
2022/07/01 06:07:17;;;;;;;31.45;22.33;;;;;;;;;;4993252;28;20054;-55
2022/07/01 06:09:43;;;;;;;35.13;22.33;;;;;;;;;;5000669;28;20072;-55
2022/07/01 06:12:09;;;;;;;32.20;21.10;;;;;;;;;;5002480;28;20088;-56
2022/07/01 06:14:37;;;;;;;30.13;21.15;;;;;;;;;;4992897;28;20096;-55
2022/07/01 06:17:03;;;;;;;31.35;21.98;;;;;;;;;;4992114;28;20045;-56
2022/07/01 06:19:29;;;;;;;32.65;21.77;;;;;;;;;;4989736;28;20050;-55
2022/07/01 06:21:56;;;;;;;34.08;20.65;;;;;;;;;;4990308;28;20053;-55
2022/07/01 06:24:22;;;;;;;31.75;21.05;;;;;;;;;;4992265;28;20510;-55
2022/07/01 06:26:48;;;;;;;32.17;20.33;;;;;;;;;;4992315;28;20479;-55
2022/07/01 06:29:14;;;;;;;29.63;20.45;;;;;;;;;;5006767;28;20081;-56
2022/07/01 06:31:40;;;;;;;30.70;19.98;;;;;;;;;;4997823;28;20074;-56
2022/07/01 06:34:06;;;;;;;27.83;20.83;;;;;;;;;;4995512;28;20124;-56
2022/07/01 06:36:32;;;;;;;28.20;19.73;;;;;;;;;;4995599;28;20113;-56
2022/07/01 06:38:58;;;;;;;26.02;19.05;;;;;;;;;;4996921;28;20446;-56
2022/07/01 06:41:27;;;;;;;28.60;20.15;;;;;;;;;;4995133;28;20383;-56
2022/07/01 06:44:04;;;;;;;26.40;18.48;;;;;;;;;;4992993;28;20120;-56
2022/07/01 06:46:30;;;;;;;28.63;19.17;;;;;;;;;;4995873;28;20042;-56
2022/07/01 06:48:58;;;;;;;27.65;19.70;;;;;;;;;;4994576;28;20121;-56
2022/07/01 06:51:24;;;;;;;25.40;20.08;;;;;;;;;;4995587;28;20561;-56
2022/07/01 06:53:50;;;;;;;22.73;17.33;;;;;;;;;;4995305;28;20080;-56
2022/07/01 06:56:17;;;;;;;25.83;17.85;;;;;;;;;;4993737;28;20502;-56
2022/07/01 06:58:43;;;;;;;22.58;17.33;;;;;;;;;;5001499;28;20038;-56
2022/07/01 07:01:09;;;;;;;25.23;17.92;;;;;;;;;;5003576;28;20137;-55
2022/07/01 07:03:35;;;;;;;21.58;17.45;;;;;;;;;;5006350;28;20493;-55
2022/07/01 07:06:02;;;;;;;22.58;17.52;;;;;;;;;;4996381;28;20042;-55
2022/07/01 07:08:29;;;;;;;24.13;19.23;;;;;;;;;;4993428;28;20050;-57
2022/07/01 07:10:55;;;;;;;25.27;15.75;;;;;;;;;;4994655;28;20538;-55
2022/07/01 07:13:21;;;;;;;26.90;19.98;;;;;;;;;;4994671;28;20491;-55
2022/07/01 07:15:47;;;;;;;24.23;19.10;;;;;;;;;;5007274;28;20053;-55
2022/07/01 07:18:13;;;;;;;23.00;16.75;;;;;;;;;;4993933;28;20078;-55
2022/07/01 07:20:39;;;;;;;25.77;18.85;;;;;;;;;;4995075;28;20047;-55
2022/07/01 07:23:05;;;;;;;29.60;20.02;;;;;;;;;;4995324;28;20049;-55
2022/07/01 07:25:32;;;;;;;28.30;17.50;;;;;;;;;;5005430;28;20045;-55
2022/07/01 07:27:58;;;;;;;21.98;18.60;;;;;;;;;;4996238;28;20382;-55
2022/07/01 07:30:24;;;;;;;20.92;14.48;;;;;;;;;;4992556;28;20371;-56
2022/07/01 07:32:50;;;;;;;26.23;19.10;;;;;;;;;;4998156;28;20058;-56
2022/07/01 07:35:16;;;;;;;23.63;17.38;;;;;;;;;;4995476;28;20065;-55
2022/07/01 07:37:42;;;;;;;25.48;17.77;;;;;;;;;;5009697;28;20479;-55
2022/07/01 07:40:09;;;;;;;23.20;18.25;;;;;;;;;;4995750;28;20046;-55
2022/07/01 07:42:40;;;;;;;20.67;16.77;;;;;;;;;;5008293;28;20045;-56
2022/07/01 07:45:06;;;;;;;19.75;15.90;;;;;;;;;;4998469;28;20105;-57
2022/07/01 07:47:33;;;;;;;22.73;16.45;;;;;;;;;;4996015;28;20116;-56
2022/07/01 07:49:59;;;;;;;20.00;16.10;;;;;;;;;;4991138;28;20455;-55
2022/07/01 07:52:25;;;;;;;23.50;16.45;;;;;;;;;;4975921;28;20054;-56
2022/07/01 07:54:51;;;;;;;21.45;15.43;;;;;;;;;;4991758;28;20393;-56
2022/07/01 07:57:17;;;;;;;20.33;14.85;;;;;;;;;;4992981;28;20046;-56
2022/07/01 07:59:43;;;;;;;21.10;15.27;;;;;;;;;;4992770;28;20049;-57
2022/07/01 08:02:09;;;;;;;18.65;14.93;;;;;;;;;;4999795;28;20049;-56
2022/07/01 08:04:35;;;;;;;19.60;14.68;;;;;;;;;;4993643;28;20494;-56
2022/07/01 08:07:01;;;;;;;16.45;13.50;;;;;;;;;;4992549;28;20077;-56
2022/07/01 08:09:28;;;;;;;22.08;13.85;;;;;;;;;;4993984;28;20121;-56
2022/07/01 08:11:54;;;;;;;17.92;13.82;;;;;;;;;;4992560;28;20082;-56
2022/07/01 08:14:20;;;;;;;16.58;13.18;;;;;;;;;;4999336;28;20757;-56
2022/07/01 08:16:46;;;;;;;20.17;13.10;;;;;;;;;;4992641;28;20074;-54
2022/07/01 08:19:12;;;;;;;17.25;12.25;;;;;;;;;;4993902;28;20054;-56
2022/07/01 08:21:38;;;;;;;19.15;13.35;;;;;;;;;;4996003;28;20088;-57
2022/07/01 08:24:04;;;;;;;16.33;12.60;;;;;;;;;;5010422;28;20053;-56
2022/07/01 08:26:30;;;;;;;16.83;11.20;;;;;;;;;;5007734;28;20130;-57
2022/07/01 08:28:58;;;;;;;15.02;10.82;;;;;;;;;;4994468;28;20117;-56
2022/07/01 08:31:24;;;;;;;17.90;11.73;;;;;;;;;;4993926;28;20046;-57
2022/07/01 08:33:50;;;;;;;17.17;11.73;;;;;;;;;;4994277;28;20046;-56
2022/07/01 08:36:16;;;;;;;22.48;11.07;;;;;;;;;;4989830;28;20045;-58
2022/07/01 08:38:42;;;;;;;14.80;11.63;;;;;;;;;;5008991;28;20373;-56
2022/07/01 08:41:09;;;;;;;11.70;9.80;;;;;;;;;;4997198;28;20046;-56
2022/07/01 08:43:35;;;;;;;17.40;9.98;;;;;;;;;;4994512;28;20188;-56
2022/07/01 08:46:02;;;;;;;15.82;9.80;;;;;;;;;;4992898;28;20077;-56
2022/07/01 08:48:29;;;;;;;11.27;8.95;;;;;;;;;;4994043;28;20058;-56
2022/07/01 08:50:55;;;;;;;11.65;7.88;;;;;;;;;;4994356;28;20498;-56
2022/07/01 08:53:21;;;;;;;12.63;6.78;;;;;;;;;;4994195;28;20129;-55
2022/07/01 08:58:32;;;;;;;11.40;6.72;;;;;;;;;;5014061;28;20480;-56
2022/07/01 09:01:18;;;;;;;13.65;7.85;;;;;;;;;;4999244;28;20089;-58
2022/07/01 09:03:48;;;;;;;15.73;8.20;;;;;;;;;;4993116;28;20136;-59
2022/07/01 09:06:17;;;;;;;14.45;7.85;;;;;;;;;;4999128;28;20073;-58
2022/07/01 09:08:44;;;;;;;14.20;9.30;;;;;;;;;;4999425;28;20049;-56
2022/07/01 09:11:13;;;;;;;12.50;7.03;;;;;;;;;;4994224;28;20057;-56
2022/07/01 09:13:40;;;;;;;10.77;6.55;;;;;;;;;;4989912;28;20054;-56
2022/07/01 09:16:16;;;;;;;11.65;6.78;;;;;;;;;;4995788;28;20390;-57
2022/07/01 09:19:00;;;;;;;16.75;7.88;;;;;;;;;;5013367;28;20453;-57
2022/07/01 09:21:29;;;;;;;11.80;7.25;;;;;;;;;;5011814;28;20152;-58
2022/07/01 09:23:55;;;;;;;10.23;7.97;;;;;;;;;;4995870;28;20089;-58
2022/07/01 09:26:21;;;;;;;14.43;7.68;;;;;;;;;;4992196;28;20050;-58
2022/07/01 09:28:55;;;;;;;14.02;8.10;;;;;;;;;;4987417;28;20049;-59
2022/07/01 09:31:21;;;;;;;9.45;6.95;;;;;;;;;;4972203;28;20038;-60
2022/07/01 09:34:02;;;;;;;9.10;6.75;;;;;;;;;;4972899;28;20548;-58
2022/07/01 09:36:28;;;;;;;10.75;5.50;;;;;;;;;;4989610;28;20470;-58
2022/07/01 09:38:54;;;;;;;14.00;5.55;;;;;;;;;;4989342;28;20060;-60
2022/07/01 09:41:23;;;;;;;10.35;5.13;;;;;;;;;;4990531;28;20049;-59
2022/07/01 09:43:49;;;;;;;10.50;4.55;;;;;;;;;;4989304;28;20050;-59
2022/07/01 09:46:15;;;;;;;11.20;3.10;;;;;;;;;;4992544;28;20077;-59
2022/07/01 09:48:44;;;;;;;7.47;2.80;;;20.40;99.90;;;;;;4990336;28;20038;-58
2022/07/01 09:51:12;;;;;;;6.85;2.50;;;20.80;99.90;;;;;;4987669;28;20039;-59
2022/07/01 09:53:38;;;;;;;8.02;2.55;;;;;;;;;;4989514;28;20066;-59
2022/07/01 09:56:04;;;;;;;5.45;2.65;;;;;;;;;;4991816;28;20101;-58
2022/07/01 09:58:32;;;;;;;12.00;2.70;;;;;;;;;;4989569;28;20034;-60
2022/07/01 10:00:58;;;;;;;7.45;2.50;;;;;;;;;;4988599;28;20117;-59
2022/07/01 10:03:26;;;;;;;4.63;1.83;;;;;;;;;;4991325;28;20049;-58
2022/07/01 10:05:52;;;;;;;6.18;1.63;;;;;;;;;;4992812;28;20153;-58
2022/07/01 10:08:39;;;;;;;5.70;1.50;;;20.80;99.90;;;;;;4974855;28;20073;-59
2022/07/01 10:11:38;;;;;;;6.82;1.85;;;;;;;;;;4986475;28;20148;-58
2022/07/01 10:14:04;;;;;;;4.55;1.45;;;;;;;;;;4969997;28;20047;-59
2022/07/01 10:16:32;;;;;;;5.10;1.63;;;21.70;99.90;;;;;;4988341;28;20076;-58
2022/07/01 10:18:58;;;;;;;5.55;1.85;;;;;;;;;;4999535;28;20073;-59
2022/07/01 10:21:29;;;;;;;5.28;1.10;;;;;;;;;;4974952;28;20049;-59
2022/07/01 10:24:11;;;;;;;9.30;1.30;;;;;;;;;;4991133;28;20046;-59
2022/07/01 10:26:37;;;;;;;4.38;1.25;;;;;;;;;;4993219;28;20410;-58
2022/07/01 10:29:03;;;;;;;5.80;1.08;;;;;;;;;;4989315;28;20042;-59
2022/07/01 10:31:37;;;;;;;6.25;1.50;;;;;;;;;;4997630;28;20045;-58
2022/07/01 10:34:04;;;;;;;5.57;1.23;;;;;;;;;;5001982;28;20054;-59
2022/07/01 10:36:33;;;;;;;9.70;1.45;;;;;;;;;;4992208;28;20363;-60
2022/07/01 10:39:03;;;;;;;5.88;1.20;;;;;;;;;;4989963;28;20053;-60
2022/07/01 10:41:30;;;;;;;4.72;1.00;;;;;;;;;;4988209;28;20081;-58
2022/07/01 10:43:56;;;;;;;4.50;1.10;;;;;;;;;;4972209;28;20049;-58
2022/07/01 10:46:41;;;;;;;4.35;0.80;;;20.30;99.90;;;;;;5004127;28;20053;-58
2022/07/01 10:49:36;;;;;;;5.53;0.93;;;20.50;99.90;;;;;;4991096;28;20034;-59
2022/07/01 10:52:05;;;;;;;2.85;0.98;;;;;;;;;;4974121;28;20078;-59
2022/07/01 10:54:38;;;;;;;3.30;0.90;;;;;;;;;;4989426;28;20428;-58
2022/07/01 10:57:17;;;;;;;3.40;0.88;;;20.80;99.90;;;;;;4989538;28;20449;-57
2022/07/01 10:59:44;;;;;;;2.60;1.20;;;;;;;;;;4992825;28;20045;-57
2022/07/01 11:02:14;;;;;;;1.55;0.50;;;;;;;;;;4991660;28;20042;-56
2022/07/01 11:04:41;;;;;;;6.53;0.95;;;;;;;;;;4989657;28;20491;-57
2022/07/01 11:07:08;;;;;;;3.78;0.60;;;;;;;;;;5003112;28;20062;-57
2022/07/01 11:09:34;;;;;;;3.13;0.68;;;;;;;;;;4991836;28;20081;-57
2022/07/01 11:12:01;;;;;;;4.78;0.80;;;22.10;99.90;;;;;;4990734;28;20047;-58
2022/07/01 11:14:27;;;;;;;2.47;0.60;;;;;;;;;;4990987;28;20049;-57
2022/07/01 11:16:54;;;;;;;4.32;0.70;;;;;;;;;;5004997;28;20489;-57
2022/07/01 11:19:20;;;;;;;5.40;0.80;;;;;;;;;;4992184;28;20427;-58
2022/07/01 11:21:50;;;;;;;2.47;0.50;;;;;;;;;;4994370;28;20055;-57
2022/07/01 11:24:17;;;;;;;7.90;1.10;;;21.70;99.90;;;;;;4994341;28;20053;-57
2022/07/01 11:26:43;;;;;;;2.67;0.70;;;;;;;;;;5007185;28;20049;-57
2022/07/01 11:29:24;;;;;;;4.35;1.00;;;;;;;;;;4996225;28;20046;-56
2022/07/01 11:31:50;;;;;;;3.50;1.00;;;;;;;;;;4994804;28;20133;-57
2022/07/01 11:34:17;;;;;;;3.80;0.70;;;;;;;;;;4976910;28;20434;-56
2022/07/01 11:39:43;;;;;;;3.27;0.60;;;;;;;;;;4973926;28;20042;-57
2022/07/01 11:42:11;;;;;;;1.73;0.38;;;;;;;;;;4974159;28;20495;-56
2022/07/01 11:44:42;;;;;;;2.88;0.50;;;;;;;;;;4967665;28;20042;-57
2022/07/01 11:47:12;;;;;;;3.17;0.60;;;;;;;;;;4969316;28;20051;-57
2022/07/01 11:49:45;;;;;;;2.85;0.50;;;;;;;;;;4956320;28;20065;-56
2022/07/01 11:52:11;;;;;;;8.02;1.33;;;;;;;;;;4941624;28;20122;-57
2022/07/01 11:54:43;;;;;;;2.20;0.63;;;22.20;99.90;;;;;;4957730;28;20038;-57
2022/07/01 11:57:13;;;;;;;4.07;0.80;;;;;;;;;;4954902;28;20144;-57
2022/07/01 11:59:40;;;;;;;6.70;0.75;;;;;;;;;;4961868;28;20030;-56
2022/07/01 12:02:07;;;;;;;2.08;0.60;;;22.50;99.90;;;;;;4977050;28;20061;-57
2022/07/01 12:04:33;;;;;;;4.65;0.80;;;22.30;99.90;;;;;;4993241;28;20541;-57
2022/07/01 12:07:00;;;;;;;9.95;1.02;;;;;;;;;;4973816;28;20073;-57
2022/07/01 12:09:26;;;;;;;6.93;1.23;;;;;;;;;;4955024;28;20058;-58
2022/07/01 12:11:53;;;;;;;3.53;0.90;;;;;;;;;;4973526;28;20050;-57
2022/07/01 12:14:20;;;;;;;4.22;0.80;;;;;;;;;;4974670;28;20085;-57
2022/07/01 12:16:46;;;;;;;21.35;1.35;;;;;;;;;;4994435;28;20042;-57
2022/07/01 12:19:12;;;;;;;3.75;0.88;;;;;;;;;;4992845;28;20125;-57
2022/07/01 12:21:54;;;;;;;3.05;0.90;;;;;;;;;;4994978;28;20085;-57
2022/07/01 12:24:23;;;;;;;6.95;0.85;;;22.70;99.90;;;;;;4994156;28;20049;-57
2022/07/01 12:26:50;;;;;;;4.55;0.93;;;;;;;;;;4977418;28;20086;-57
2022/07/01 12:29:16;;;;;;;5.60;0.90;;;;;;;;;;4999063;28;20079;-56
2022/07/01 12:31:42;;;;;;;60.08;3.42;;;;;;;;;;4977726;28;20046;-57
2022/07/01 12:34:09;;;;;;;5.70;0.70;;;;;;;;;;4990626;28;20060;-56
2022/07/01 12:36:37;;;;;;;4.25;0.60;;;;;;;;;;4992954;28;20042;-57
2022/07/01 12:39:05;;;;;;;4.95;0.80;;;;;;;;;;4994353;28;20061;-57
2022/07/01 12:41:33;;;;;;;4.45;0.80;;;;;;;;;;4976681;28;20042;-58
2022/07/01 12:43:59;;;;;;;3.03;0.75;;;;;;;;;;4974481;28;20108;-57
2022/07/01 12:46:29;;;;;;;2.97;0.90;;;;;;;;;;5010482;28;20096;-57
2022/07/01 12:48:55;;;;;;;5.50;0.82;;;;;;;;;;4994299;28;20050;-56
2022/07/01 12:51:21;;;;;;;6.22;0.70;;;;;;;;;;4993310;28;20046;-56
2022/07/01 12:53:48;;;;;;;2.80;0.80;;;;;;;;;;4989435;28;20061;-58
2022/07/01 12:56:25;;;;;;;2.65;0.70;;;;;;;;;;4987315;28;20479;-57
2022/07/01 12:58:52;;;;;;;3.58;1.10;;;;;;;;;;4992133;28;20057;-57
2022/07/01 13:01:21;;;;;;;1.55;0.50;;;;;;;;;;4989423;28;20068;-58
2022/07/01 13:03:47;;;;;;;2.67;0.68;;;;;;;;;;4989194;28;20050;-57
2022/07/01 13:06:13;;;;;;;4.78;0.63;;;;;;;;;;4991571;28;20046;-56
2022/07/01 13:08:39;;;;;;;4.35;0.68;;;;;;;;;;4991709;28;20490;-57
2022/07/01 13:11:06;;;;;;;3.05;0.77;;;;;;;;;;4991893;28;20479;-56
2022/07/01 13:13:32;;;;;;;3.47;0.70;;;;;;;;;;4990747;28;20054;-56
2022/07/01 13:15:58;;;;;;;5.07;0.60;;;;;;;;;;4974983;28;20502;-56
2022/07/01 13:18:24;;;;;;;5.72;1.30;;;;;;;;;;4994765;28;20054;-56
2022/07/01 13:20:51;;;;;;;2.03;0.82;;;;;;;;;;5007076;28;20380;-56
2022/07/01 13:23:17;;;;;;;2.58;0.55;;;;;;;;;;4993895;28;20045;-55
2022/07/01 13:25:44;;;;;;;4.55;1.02;;;;;;;;;;4990143;28;20052;-54
2022/07/01 13:28:10;;;;;;;3.97;0.90;;;;;;;;;;4989801;28;20057;-55
2022/07/01 13:30:37;;;;;;;4.55;1.20;;;;;;;;;;4990630;28;20049;-57
2022/07/01 13:33:03;;;;;;;3.53;0.98;;;;;;;;;;4992188;28;20042;-56
2022/07/01 13:35:29;;;;;;;7.47;1.98;;;;;;;;;;4992355;28;20057;-56
2022/07/01 13:37:55;;;;;;;4.43;0.85;;;;;;;;;;4989918;28;20060;-56
2022/07/01 13:40:22;;;;;;;6.97;1.23;;;;;;;;;;4990078;28;20049;-56
2022/07/01 13:42:48;;;;;;;2.40;0.68;;;;;;;;;;4972689;28;20180;-56
2022/07/01 13:45:14;;;;;;;6.63;1.52;;;;;;;;;;4992179;28;20438;-57
2022/07/01 13:47:40;;;;;;;3.95;0.90;;;;;;;;;;4991978;28;20541;-56
2022/07/01 13:50:07;;;;;;;7.05;0.98;;;;;;;;;;4991528;28;20034;-56
2022/07/01 13:52:33;;;;;;;5.90;1.00;;;;;;;;;;4991124;28;20038;-56
2022/07/01 13:54:59;;;;;;;4.78;0.93;;;;;;;;;;4994920;28;20474;-56
2022/07/01 13:57:26;;;;;;;6.78;0.95;;;;;;;;;;4992041;28;20038;-56
2022/07/01 13:59:52;;;;;;;5.60;1.20;;;;;;;;;;4991131;28;20046;-56
2022/07/01 14:02:19;;;;;;;3.90;0.80;;;;;;;;;;4990647;28;20145;-56
2022/07/01 14:04:46;;;;;;;4.18;0.77;;;;;;;;;;4989595;28;20100;-55
2022/07/01 14:07:12;;;;;;;5.32;0.98;;;;;;;;;;4991599;28;20044;-56
2022/07/01 14:09:40;;;;;;;7.10;1.10;;;;;;;;;;4990128;28;20382;-57
2022/07/01 14:12:06;;;;;;;2.65;0.75;;;;;;;;;;4987627;28;20077;-56
2022/07/01 14:14:32;;;;;;;3.10;0.85;;;;;;;;;;4991587;28;20126;-56
2022/07/01 14:17:03;;;;;;;6.28;1.08;;;;;;;;;;4991193;28;20141;-57
2022/07/01 14:19:29;;;;;;;5.85;0.80;;;;;;;;;;4989786;28;20089;-56
2022/07/01 14:21:55;;;;;;;7.30;1.10;;;;;;;;;;4987557;28;20042;-56
2022/07/01 14:24:21;;;;;;;6.30;1.25;;;;;;;;;;4973317;28;20105;-57
2022/07/01 14:26:47;;;;;;;2.70;0.70;;;;;;;;;;4991534;28;20058;-57
2022/07/01 14:29:13;;;;;;;7.47;1.00;;;;;;;;;;4991410;28;20450;-57
2022/07/01 14:31:39;;;;;;;11.82;1.95;;;;;;;;;;4995674;28;20479;-58
2022/07/01 14:34:06;;;;;;;7.55;0.90;;;;;;;;;;4999870;28;20398;-56
2022/07/01 14:36:32;;;;;;;4.35;1.23;;;;;;;;;;4992244;28;20053;-56
2022/07/01 14:38:57;;;;;;;5.28;1.38;;;;;;;;;;5010206;28;20385;-56
2022/07/01 14:41:24;;;;;;;4.60;0.80;;;;;;;;;;5012325;28;20046;-56
2022/07/01 14:43:50;;;;;;;3.25;1.00;;;;;;;;;;5000223;28;20051;-56
2022/07/01 14:46:16;;;;;;;4.47;1.13;;;;;;;;;;4992281;28;20122;-56